sensor_id;sensor_type;location;lat;lon;timestamp;P1;durP1;ratioP1;P2;durP2;ratioP2
27275;SDS011;14772;47.398;8.080;2022-09-09T00:03:14;8.90;;;2.20;;
27275;SDS011;14772;47.398;8.080;2022-09-09T00:08:15;7.80;;;2.23;;
27275;SDS011;14772;47.398;8.080;2022-09-09T00:13:16;11.83;;;2.40;;
27275;SDS011;14772;47.398;8.080;2022-09-09T00:18:20;8.47;;;2.07;;
27275;SDS011;14772;47.398;8.080;2022-09-09T00:23:20;10.07;;;2.40;;
27275;SDS011;14772;47.398;8.080;2022-09-09T00:28:22;11.40;;;2.27;;
27275;SDS011;14772;47.398;8.080;2022-09-09T00:33:22;10.63;;;2.07;;
27275;SDS011;14772;47.398;8.080;2022-09-09T00:38:23;6.80;;;2.10;;
27275;SDS011;14772;47.398;8.080;2022-09-09T00:43:24;9.17;;;2.37;;
27275;SDS011;14772;47.398;8.080;2022-09-09T00:48:24;7.10;;;2.20;;
27275;SDS011;14772;47.398;8.080;2022-09-09T00:53:27;5.77;;;1.90;;
27275;SDS011;14772;47.398;8.080;2022-09-09T00:58:27;8.27;;;2.40;;
27275;SDS011;14772;47.398;8.080;2022-09-09T01:03:27;6.83;;;2.10;;
27275;SDS011;14772;47.398;8.080;2022-09-09T01:08:35;10.20;;;2.20;;
27275;SDS011;14772;47.398;8.080;2022-09-09T01:13:38;7.90;;;2.20;;
27275;SDS011;14772;47.398;8.080;2022-09-09T01:18:38;7.37;;;2.20;;
27275;SDS011;14772;47.398;8.080;2022-09-09T01:23:41;6.13;;;2.00;;
27275;SDS011;14772;47.398;8.080;2022-09-09T01:28:45;12.40;;;2.70;;
27275;SDS011;14772;47.398;8.080;2022-09-09T01:33:43;10.63;;;2.67;;
27275;SDS011;14772;47.398;8.080;2022-09-09T01:38:41;9.80;;;2.50;;
27275;SDS011;14772;47.398;8.080;2022-09-09T01:43:38;13.30;;;3.20;;
27275;SDS011;14772;47.398;8.080;2022-09-09T01:48:35;13.17;;;3.17;;
27275;SDS011;14772;47.398;8.080;2022-09-09T01:53:33;14.13;;;3.30;;
27275;SDS011;14772;47.398;8.080;2022-09-09T01:58:32;9.70;;;3.00;;
27275;SDS011;14772;47.398;8.080;2022-09-09T02:03:33;13.30;;;2.63;;
27275;SDS011;14772;47.398;8.080;2022-09-09T02:08:33;12.13;;;2.90;;
27275;SDS011;14772;47.398;8.080;2022-09-09T02:13:35;12.13;;;2.63;;
27275;SDS011;14772;47.398;8.080;2022-09-09T02:18:35;11.53;;;2.60;;
27275;SDS011;14772;47.398;8.080;2022-09-09T02:23:35;10.03;;;2.30;;
27275;SDS011;14772;47.398;8.080;2022-09-09T02:28:40;8.30;;;2.50;;
27275;SDS011;14772;47.398;8.080;2022-09-09T02:33:38;11.87;;;2.67;;
27275;SDS011;14772;47.398;8.080;2022-09-09T02:38:40;8.00;;;2.30;;
27275;SDS011;14772;47.398;8.080;2022-09-09T02:43:38;9.70;;;2.57;;
27275;SDS011;14772;47.398;8.080;2022-09-09T02:48:38;8.80;;;2.53;;
27275;SDS011;14772;47.398;8.080;2022-09-09T02:53:39;9.57;;;2.30;;
27275;SDS011;14772;47.398;8.080;2022-09-09T02:58:39;9.73;;;2.60;;
27275;SDS011;14772;47.398;8.080;2022-09-09T03:03:37;7.90;;;2.47;;
27275;SDS011;14772;47.398;8.080;2022-09-09T03:08:34;10.37;;;2.37;;
27275;SDS011;14772;47.398;8.080;2022-09-09T03:13:32;8.73;;;2.40;;
27275;SDS011;14772;47.398;8.080;2022-09-09T03:18:29;8.23;;;2.40;;
27275;SDS011;14772;47.398;8.080;2022-09-09T03:23:26;10.63;;;2.30;;
27275;SDS011;14772;47.398;8.080;2022-09-09T03:28:23;9.30;;;2.30;;
27275;SDS011;14772;47.398;8.080;2022-09-09T03:33:20;9.97;;;2.40;;
27275;SDS011;14772;47.398;8.080;2022-09-09T03:38:18;9.63;;;2.70;;
27275;SDS011;14772;47.398;8.080;2022-09-09T03:43:15;10.47;;;2.90;;
27275;SDS011;14772;47.398;8.080;2022-09-09T03:48:12;10.37;;;2.50;;
27275;SDS011;14772;47.398;8.080;2022-09-09T03:53:10;9.60;;;2.83;;
27275;SDS011;14772;47.398;8.080;2022-09-09T03:58:07;12.23;;;2.80;;
27275;SDS011;14772;47.398;8.080;2022-09-09T04:03:04;11.50;;;3.03;;
27275;SDS011;14772;47.398;8.080;2022-09-09T04:08:01;9.67;;;2.80;;
27275;SDS011;14772;47.398;8.080;2022-09-09T04:12:59;11.10;;;3.10;;
27275;SDS011;14772;47.398;8.080;2022-09-09T04:17:56;10.30;;;2.83;;
27275;SDS011;14772;47.398;8.080;2022-09-09T04:22:53;9.03;;;2.50;;
27275;SDS011;14772;47.398;8.080;2022-09-09T04:27:53;8.67;;;2.47;;
27275;SDS011;14772;47.398;8.080;2022-09-09T04:32:51;8.37;;;2.40;;
27275;SDS011;14772;47.398;8.080;2022-09-09T04:37:48;10.63;;;3.07;;
27275;SDS011;14772;47.398;8.080;2022-09-09T04:42:45;10.77;;;2.63;;
27275;SDS011;14772;47.398;8.080;2022-09-09T04:47:42;10.27;;;2.70;;
27275;SDS011;14772;47.398;8.080;2022-09-09T04:52:39;9.17;;;2.47;;
27275;SDS011;14772;47.398;8.080;2022-09-09T04:57:36;12.07;;;2.57;;
27275;SDS011;14772;47.398;8.080;2022-09-09T05:02:36;6.23;;;2.27;;
27275;SDS011;14772;47.398;8.080;2022-09-09T05:07:34;8.47;;;2.50;;
27275;SDS011;14772;47.398;8.080;2022-09-09T05:12:31;12.07;;;5.23;;
27275;SDS011;14772;47.398;8.080;2022-09-09T05:17:28;9.50;;;3.27;;
27275;SDS011;14772;47.398;8.080;2022-09-09T05:22:25;8.43;;;2.83;;
27275;SDS011;14772;47.398;8.080;2022-09-09T05:27:22;9.40;;;2.80;;
27275;SDS011;14772;47.398;8.080;2022-09-09T05:32:19;10.07;;;3.07;;
27275;SDS011;14772;47.398;8.080;2022-09-09T05:37:17;8.33;;;2.80;;
27275;SDS011;14772;47.398;8.080;2022-09-09T05:42:14;9.23;;;3.03;;
27275;SDS011;14772;47.398;8.080;2022-09-09T05:47:11;15.27;;;3.17;;
27275;SDS011;14772;47.398;8.080;2022-09-09T05:52:09;9.00;;;2.93;;
27275;SDS011;14772;47.398;8.080;2022-09-09T05:57:06;9.03;;;2.87;;
27275;SDS011;14772;47.398;8.080;2022-09-09T06:02:04;9.83;;;2.90;;
27275;SDS011;14772;47.398;8.080;2022-09-09T06:07:01;9.10;;;3.00;;
27275;SDS011;14772;47.398;8.080;2022-09-09T06:11:58;8.37;;;3.10;;
27275;SDS011;14772;47.398;8.080;2022-09-09T06:16:55;9.73;;;3.10;;
27275;SDS011;14772;47.398;8.080;2022-09-09T06:21:52;10.53;;;3.03;;
27275;SDS011;14772;47.398;8.080;2022-09-09T06:26:50;13.27;;;3.50;;
27275;SDS011;14772;47.398;8.080;2022-09-09T06:31:47;9.87;;;3.00;;
27275;SDS011;14772;47.398;8.080;2022-09-09T06:36:44;9.67;;;2.73;;
27275;SDS011;14772;47.398;8.080;2022-09-09T06:41:41;8.23;;;2.50;;
27275;SDS011;14772;47.398;8.080;2022-09-09T06:46:39;8.33;;;2.10;;
27275;SDS011;14772;47.398;8.080;2022-09-09T06:51:36;5.90;;;1.77;;
27275;SDS011;14772;47.398;8.080;2022-09-09T06:56:34;7.10;;;2.20;;
27275;SDS011;14772;47.398;8.080;2022-09-09T07:01:33;8.17;;;2.10;;
27275;SDS011;14772;47.398;8.080;2022-09-09T07:06:32;7.93;;;2.37;;
27275;SDS011;14772;47.398;8.080;2022-09-09T07:11:37;8.30;;;2.83;;
27275;SDS011;14772;47.398;8.080;2022-09-09T07:16:32;7.07;;;2.50;;
27275;SDS011;14772;47.398;8.080;2022-09-09T07:21:29;8.30;;;2.70;;
27275;SDS011;14772;47.398;8.080;2022-09-09T07:26:27;13.37;;;3.43;;
27275;SDS011;14772;47.398;8.080;2022-09-09T07:31:27;12.60;;;3.50;;
27275;SDS011;14772;47.398;8.080;2022-09-09T07:36:26;10.00;;;3.60;;
27275;SDS011;14772;47.398;8.080;2022-09-09T07:41:25;12.33;;;4.07;;
27275;SDS011;14772;47.398;8.080;2022-09-09T07:46:24;9.87;;;3.77;;
27275;SDS011;14772;47.398;8.080;2022-09-09T07:51:24;13.73;;;4.43;;
27275;SDS011;14772;47.398;8.080;2022-09-09T07:56:32;9.90;;;4.07;;
27275;SDS011;14772;47.398;8.080;2022-09-09T08:01:30;11.87;;;4.30;;
27275;SDS011;14772;47.398;8.080;2022-09-09T08:06:29;10.17;;;4.07;;
27275;SDS011;14772;47.398;8.080;2022-09-09T08:11:27;11.30;;;3.90;;
27275;SDS011;14772;47.398;8.080;2022-09-09T08:16:26;10.17;;;3.40;;
27275;SDS011;14772;47.398;8.080;2022-09-09T08:21:25;12.60;;;3.90;;
27275;SDS011;14772;47.398;8.080;2022-09-09T08:26:25;11.73;;;3.80;;
27275;SDS011;14772;47.398;8.080;2022-09-09T08:31:23;9.23;;;3.40;;
27275;SDS011;14772;47.398;8.080;2022-09-09T08:36:23;11.90;;;3.20;;
27275;SDS011;14772;47.398;8.080;2022-09-09T08:41:32;7.60;;;2.47;;
27275;SDS011;14772;47.398;8.080;2022-09-09T08:46:56;8.50;;;2.73;;
27275;SDS011;14772;47.398;8.080;2022-09-09T08:51:56;8.80;;;2.43;;
27275;SDS011;14772;47.398;8.080;2022-09-09T08:56:53;8.90;;;2.43;;
27275;SDS011;14772;47.398;8.080;2022-09-09T09:01:54;8.77;;;2.90;;
27275;SDS011;14772;47.398;8.080;2022-09-09T09:07:01;8.33;;;2.23;;
27275;SDS011;14772;47.398;8.080;2022-09-09T09:12:06;7.60;;;2.30;;
27275;SDS011;14772;47.398;8.080;2022-09-09T09:17:06;7.33;;;2.00;;
27275;SDS011;14772;47.398;8.080;2022-09-09T09:22:13;8.67;;;2.00;;
27275;SDS011;14772;47.398;8.080;2022-09-09T09:27:13;14.30;;;2.70;;
27275;SDS011;14772;47.398;8.080;2022-09-09T09:32:13;7.83;;;2.10;;
27275;SDS011;14772;47.398;8.080;2022-09-09T09:37:22;11.67;;;2.37;;
27275;SDS011;14772;47.398;8.080;2022-09-09T09:42:22;12.73;;;2.40;;
27275;SDS011;14772;47.398;8.080;2022-09-09T09:47:20;12.00;;;2.47;;
27275;SDS011;14772;47.398;8.080;2022-09-09T09:52:19;9.50;;;1.97;;
27275;SDS011;14772;47.398;8.080;2022-09-09T09:57:22;7.57;;;2.10;;
27275;SDS011;14772;47.398;8.080;2022-09-09T10:02:36;10.20;;;2.77;;
27275;SDS011;14772;47.398;8.080;2022-09-09T10:07:34;10.47;;;2.50;;
27275;SDS011;14772;47.398;8.080;2022-09-09T10:12:35;11.77;;;2.80;;
27275;SDS011;14772;47.398;8.080;2022-09-09T10:17:38;9.60;;;2.30;;
27275;SDS011;14772;47.398;8.080;2022-09-09T10:22:37;8.13;;;2.50;;
27275;SDS011;14772;47.398;8.080;2022-09-09T10:27:40;8.00;;;2.33;;
27275;SDS011;14772;47.398;8.080;2022-09-09T10:32:42;10.07;;;2.40;;
27275;SDS011;14772;47.398;8.080;2022-09-09T10:37:48;7.77;;;1.97;;
27275;SDS011;14772;47.398;8.080;2022-09-09T10:43:11;8.80;;;2.20;;
27275;SDS011;14772;47.398;8.080;2022-09-09T10:48:21;10.67;;;2.20;;
27275;SDS011;14772;47.398;8.080;2022-09-09T10:53:36;9.70;;;2.20;;
27275;SDS011;14772;47.398;8.080;2022-09-09T10:58:40;8.93;;;2.00;;
27275;SDS011;14772;47.398;8.080;2022-09-09T11:03:39;6.63;;;1.80;;
27275;SDS011;14772;47.398;8.080;2022-09-09T11:08:38;7.33;;;2.07;;
27275;SDS011;14772;47.398;8.080;2022-09-09T11:13:37;7.33;;;1.80;;
27275;SDS011;14772;47.398;8.080;2022-09-09T11:18:37;9.30;;;2.07;;
27275;SDS011;14772;47.398;8.080;2022-09-09T11:23:38;8.90;;;1.97;;
27275;SDS011;14772;47.398;8.080;2022-09-09T11:28:40;5.97;;;1.80;;
27275;SDS011;14772;47.398;8.080;2022-09-09T11:33:53;7.33;;;1.90;;
27275;SDS011;14772;47.398;8.080;2022-09-09T11:39:07;7.70;;;1.80;;
27275;SDS011;14772;47.398;8.080;2022-09-09T11:44:11;5.90;;;1.63;;
27275;SDS011;14772;47.398;8.080;2022-09-09T11:49:25;7.63;;;1.80;;
27275;SDS011;14772;47.398;8.080;2022-09-09T11:54:28;4.57;;;1.40;;
27275;SDS011;14772;47.398;8.080;2022-09-09T11:59:28;5.20;;;1.50;;
27275;SDS011;14772;47.398;8.080;2022-09-09T12:04:33;5.37;;;1.50;;
27275;SDS011;14772;47.398;8.080;2022-09-09T12:09:38;7.00;;;1.80;;
27275;SDS011;14772;47.398;8.080;2022-09-09T12:14:44;7.47;;;1.70;;
27275;SDS011;14772;47.398;8.080;2022-09-09T12:20:00;7.37;;;1.70;;
27275;SDS011;14772;47.398;8.080;2022-09-09T12:25:00;5.73;;;1.50;;
27275;SDS011;14772;47.398;8.080;2022-09-09T12:30:03;6.23;;;1.57;;
27275;SDS011;14772;47.398;8.080;2022-09-09T12:35:02;7.43;;;1.50;;
27275;SDS011;14772;47.398;8.080;2022-09-09T12:40:02;8.47;;;1.60;;
27275;SDS011;14772;47.398;8.080;2022-09-09T12:45:03;5.73;;;1.30;;
27275;SDS011;14772;47.398;8.080;2022-09-09T12:50:16;5.00;;;1.40;;
27275;SDS011;14772;47.398;8.080;2022-09-09T12:55:17;5.63;;;1.40;;
27275;SDS011;14772;47.398;8.080;2022-09-09T13:00:17;5.23;;;1.43;;
27275;SDS011;14772;47.398;8.080;2022-09-09T13:05:19;4.47;;;1.10;;
27275;SDS011;14772;47.398;8.080;2022-09-09T13:10:21;7.40;;;1.53;;
27275;SDS011;14772;47.398;8.080;2022-09-09T13:15:22;6.87;;;1.50;;
27275;SDS011;14772;47.398;8.080;2022-09-09T13:20:22;8.40;;;2.60;;
27275;SDS011;14772;47.398;8.080;2022-09-09T13:25:21;5.37;;;1.40;;
27275;SDS011;14772;47.398;8.080;2022-09-09T13:30:22;8.17;;;1.67;;
27275;SDS011;14772;47.398;8.080;2022-09-09T13:35:22;6.90;;;1.60;;
27275;SDS011;14772;47.398;8.080;2022-09-09T13:40:21;5.13;;;1.40;;
27275;SDS011;14772;47.398;8.080;2022-09-09T13:45:20;6.70;;;1.50;;
27275;SDS011;14772;47.398;8.080;2022-09-09T13:50:19;4.70;;;1.43;;
27275;SDS011;14772;47.398;8.080;2022-09-09T13:55:17;7.87;;;1.50;;
27275;SDS011;14772;47.398;8.080;2022-09-09T14:00:16;9.07;;;1.50;;
27275;SDS011;14772;47.398;8.080;2022-09-09T14:05:13;5.50;;;1.60;;
27275;SDS011;14772;47.398;8.080;2022-09-09T14:10:11;5.00;;;1.37;;
27275;SDS011;14772;47.398;8.080;2022-09-09T14:15:09;8.83;;;1.50;;
27275;SDS011;14772;47.398;8.080;2022-09-09T14:20:09;7.20;;;1.50;;
27275;SDS011;14772;47.398;8.080;2022-09-09T14:25:08;4.47;;;1.33;;
27275;SDS011;14772;47.398;8.080;2022-09-09T14:30:06;6.53;;;1.40;;
27275;SDS011;14772;47.398;8.080;2022-09-09T14:35:05;7.77;;;1.57;;
27275;SDS011;14772;47.398;8.080;2022-09-09T14:40:04;4.37;;;1.30;;
27275;SDS011;14772;47.398;8.080;2022-09-09T14:45:03;3.60;;;1.20;;
27275;SDS011;14772;47.398;8.080;2022-09-09T14:50:03;5.20;;;1.40;;
27275;SDS011;14772;47.398;8.080;2022-09-09T14:55:01;5.53;;;1.40;;
27275;SDS011;14772;47.398;8.080;2022-09-09T14:59:58;3.93;;;1.37;;
27275;SDS011;14772;47.398;8.080;2022-09-09T15:04:55;6.83;;;1.50;;
27275;SDS011;14772;47.398;8.080;2022-09-09T15:09:53;4.50;;;1.40;;
27275;SDS011;14772;47.398;8.080;2022-09-09T15:14:50;3.57;;;1.30;;
27275;SDS011;14772;47.398;8.080;2022-09-09T15:19:47;6.13;;;1.30;;
27275;SDS011;14772;47.398;8.080;2022-09-09T15:24:44;7.77;;;1.50;;
27275;SDS011;14772;47.398;8.080;2022-09-09T15:29:42;6.57;;;1.70;;
27275;SDS011;14772;47.398;8.080;2022-09-09T15:34:39;5.53;;;1.50;;
27275;SDS011;14772;47.398;8.080;2022-09-09T15:39:36;5.07;;;1.50;;
27275;SDS011;14772;47.398;8.080;2022-09-09T15:44:38;4.03;;;1.30;;
27275;SDS011;14772;47.398;8.080;2022-09-09T15:49:36;6.73;;;1.50;;
27275;SDS011;14772;47.398;8.080;2022-09-09T15:54:35;4.53;;;1.40;;
27275;SDS011;14772;47.398;8.080;2022-09-09T15:59:41;4.97;;;1.43;;
27275;SDS011;14772;47.398;8.080;2022-09-09T16:04:38;7.57;;;2.10;;
27275;SDS011;14772;47.398;8.080;2022-09-09T16:09:36;6.87;;;1.67;;
27275;SDS011;14772;47.398;8.080;2022-09-09T16:14:33;5.87;;;1.40;;
27275;SDS011;14772;47.398;8.080;2022-09-09T16:19:30;8.43;;;1.50;;
27275;SDS011;14772;47.398;8.080;2022-09-09T16:24:27;4.10;;;1.57;;
27275;SDS011;14772;47.398;8.080;2022-09-09T16:29:24;6.60;;;1.50;;
27275;SDS011;14772;47.398;8.080;2022-09-09T16:34:22;5.73;;;1.30;;
27275;SDS011;14772;47.398;8.080;2022-09-09T16:39:19;5.13;;;1.50;;
27275;SDS011;14772;47.398;8.080;2022-09-09T16:44:17;8.17;;;1.87;;
27275;SDS011;14772;47.398;8.080;2022-09-09T16:49:14;4.50;;;1.40;;
27275;SDS011;14772;47.398;8.080;2022-09-09T16:54:12;7.73;;;1.80;;
27275;SDS011;14772;47.398;8.080;2022-09-09T16:59:12;3.63;;;1.30;;
27275;SDS011;14772;47.398;8.080;2022-09-09T17:04:11;6.57;;;1.40;;
27275;SDS011;14772;47.398;8.080;2022-09-09T17:09:10;4.47;;;1.23;;
27275;SDS011;14772;47.398;8.080;2022-09-09T17:14:08;3.67;;;1.30;;
27275;SDS011;14772;47.398;8.080;2022-09-09T17:19:09;7.70;;;2.00;;
27275;SDS011;14772;47.398;8.080;2022-09-09T17:24:07;7.13;;;1.77;;
27275;SDS011;14772;47.398;8.080;2022-09-09T17:29:04;8.83;;;1.87;;
27275;SDS011;14772;47.398;8.080;2022-09-09T17:34:01;5.50;;;1.50;;
27275;SDS011;14772;47.398;8.080;2022-09-09T17:38:58;5.20;;;1.37;;
27275;SDS011;14772;47.398;8.080;2022-09-09T17:43:56;4.33;;;1.30;;
27275;SDS011;14772;47.398;8.080;2022-09-09T17:48:56;3.23;;;1.30;;
27275;SDS011;14772;47.398;8.080;2022-09-09T17:53:55;6.33;;;1.60;;
27275;SDS011;14772;47.398;8.080;2022-09-09T17:58:55;4.90;;;1.40;;
27275;SDS011;14772;47.398;8.080;2022-09-09T18:03:53;4.83;;;1.60;;
27275;SDS011;14772;47.398;8.080;2022-09-09T18:08:51;4.70;;;1.40;;
27275;SDS011;14772;47.398;8.080;2022-09-09T18:13:50;5.57;;;1.37;;
27275;SDS011;14772;47.398;8.080;2022-09-09T18:18:49;4.33;;;1.60;;
27275;SDS011;14772;47.398;8.080;2022-09-09T18:23:47;4.17;;;1.40;;
27275;SDS011;14772;47.398;8.080;2022-09-09T18:28:47;3.97;;;1.40;;
27275;SDS011;14772;47.398;8.080;2022-09-09T18:33:46;3.55;;;1.50;;
27275;SDS011;14772;47.398;8.080;2022-09-09T18:38:44;4.03;;;1.60;;
27275;SDS011;14772;47.398;8.080;2022-09-09T18:43:42;4.20;;;1.60;;
27275;SDS011;14772;47.398;8.080;2022-09-09T18:48:39;4.70;;;1.53;;
27275;SDS011;14772;47.398;8.080;2022-09-09T18:53:37;3.97;;;1.60;;
27275;SDS011;14772;47.398;8.080;2022-09-09T18:58:35;3.67;;;1.43;;
27275;SDS011;14772;47.398;8.080;2022-09-09T19:03:33;6.10;;;1.60;;
27275;SDS011;14772;47.398;8.080;2022-09-09T19:08:33;5.07;;;1.63;;
27275;SDS011;14772;47.398;8.080;2022-09-09T19:13:31;9.17;;;2.00;;
27275;SDS011;14772;47.398;8.080;2022-09-09T19:18:28;5.67;;;1.80;;
27275;SDS011;14772;47.398;8.080;2022-09-09T19:23:26;7.23;;;1.90;;
27275;SDS011;14772;47.398;8.080;2022-09-09T19:28:23;3.87;;;1.50;;
27275;SDS011;14772;47.398;8.080;2022-09-09T19:33:20;5.20;;;1.50;;
27275;SDS011;14772;47.398;8.080;2022-09-09T19:38:17;4.43;;;1.60;;
27275;SDS011;14772;47.398;8.080;2022-09-09T19:43:14;9.80;;;2.00;;
27275;SDS011;14772;47.398;8.080;2022-09-09T19:48:24;6.67;;;2.20;;
27275;SDS011;14772;47.398;8.080;2022-09-09T19:53:28;6.37;;;1.70;;
27275;SDS011;14772;47.398;8.080;2022-09-09T19:58:25;7.10;;;2.00;;
27275;SDS011;14772;47.398;8.080;2022-09-09T20:03:22;4.37;;;1.40;;
27275;SDS011;14772;47.398;8.080;2022-09-09T20:08:20;4.93;;;1.50;;
27275;SDS011;14772;47.398;8.080;2022-09-09T20:13:17;2.50;;;1.30;;
27275;SDS011;14772;47.398;8.080;2022-09-09T20:18:14;4.37;;;1.50;;
27275;SDS011;14772;47.398;8.080;2022-09-09T20:23:12;4.87;;;1.60;;
27275;SDS011;14772;47.398;8.080;2022-09-09T20:28:09;6.93;;;1.80;;
27275;SDS011;14772;47.398;8.080;2022-09-09T20:33:06;6.03;;;2.00;;
27275;SDS011;14772;47.398;8.080;2022-09-09T20:38:03;5.63;;;1.57;;
27275;SDS011;14772;47.398;8.080;2022-09-09T20:43:01;6.77;;;1.70;;
27275;SDS011;14772;47.398;8.080;2022-09-09T20:47:58;3.30;;;1.50;;
27275;SDS011;14772;47.398;8.080;2022-09-09T20:52:55;5.13;;;1.43;;
27275;SDS011;14772;47.398;8.080;2022-09-09T20:57:52;2.50;;;1.30;;
27275;SDS011;14772;47.398;8.080;2022-09-09T21:02:49;3.77;;;1.23;;
27275;SDS011;14772;47.398;8.080;2022-09-09T21:07:47;2.60;;;1.30;;
27275;SDS011;14772;47.398;8.080;2022-09-09T21:12:44;2.77;;;1.00;;
27275;SDS011;14772;47.398;8.080;2022-09-09T21:17:41;1.70;;;1.10;;
27275;SDS011;14772;47.398;8.080;2022-09-09T21:22:38;4.23;;;0.90;;
27275;SDS011;14772;47.398;8.080;2022-09-09T21:27:35;1.90;;;0.90;;
27275;SDS011;14772;47.398;8.080;2022-09-09T21:32:32;2.50;;;1.00;;
27275;SDS011;14772;47.398;8.080;2022-09-09T21:37:30;2.33;;;1.10;;
27275;SDS011;14772;47.398;8.080;2022-09-09T21:42:27;2.40;;;1.00;;
27275;SDS011;14772;47.398;8.080;2022-09-09T21:47:24;3.43;;;1.20;;
27275;SDS011;14772;47.398;8.080;2022-09-09T21:52:21;2.00;;;1.00;;
27275;SDS011;14772;47.398;8.080;2022-09-09T21:57:18;1.90;;;1.10;;
27275;SDS011;14772;47.398;8.080;2022-09-09T22:02:16;4.47;;;0.97;;
27275;SDS011;14772;47.398;8.080;2022-09-09T22:07:13;0.97;;;0.97;;
27275;SDS011;14772;47.398;8.080;2022-09-09T22:12:10;3.90;;;1.20;;
27275;SDS011;14772;47.398;8.080;2022-09-09T22:17:07;2.63;;;0.93;;
27275;SDS011;14772;47.398;8.080;2022-09-09T22:22:04;2.50;;;1.10;;
27275;SDS011;14772;47.398;8.080;2022-09-09T22:27:02;0.93;;;0.80;;
27275;SDS011;14772;47.398;8.080;2022-09-09T22:31:59;1.90;;;1.00;;
27275;SDS011;14772;47.398;8.080;2022-09-09T22:36:57;3.90;;;1.13;;
27275;SDS011;14772;47.398;8.080;2022-09-09T22:41:55;3.40;;;1.10;;
27275;SDS011;14772;47.398;8.080;2022-09-09T22:46:53;1.17;;;0.90;;
27275;SDS011;14772;47.398;8.080;2022-09-09T22:51:50;3.60;;;1.10;;
27275;SDS011;14772;47.398;8.080;2022-09-09T22:56:48;3.37;;;1.10;;
27275;SDS011;14772;47.398;8.080;2022-09-09T23:01:46;2.13;;;1.00;;
27275;SDS011;14772;47.398;8.080;2022-09-09T23:06:43;1.87;;;1.00;;
27275;SDS011;14772;47.398;8.080;2022-09-09T23:11:40;1.20;;;0.90;;
27275;SDS011;14772;47.398;8.080;2022-09-09T23:16:38;2.03;;;1.10;;
27275;SDS011;14772;47.398;8.080;2022-09-09T23:21:38;3.80;;;1.20;;
27275;SDS011;14772;47.398;8.080;2022-09-09T23:26:35;2.30;;;1.03;;
27275;SDS011;14772;47.398;8.080;2022-09-09T23:31:33;4.37;;;0.93;;
27275;SDS011;14772;47.398;8.080;2022-09-09T23:36:31;1.67;;;1.00;;
27275;SDS011;14772;47.398;8.080;2022-09-09T23:41:28;3.20;;;1.10;;
27275;SDS011;14772;47.398;8.080;2022-09-09T23:46:27;4.43;;;1.10;;
27275;SDS011;14772;47.398;8.080;2022-09-09T23:51:26;3.30;;;1.00;;
27275;SDS011;14772;47.398;8.080;2022-09-09T23:56:25;3.27;;;1.20;;
